Time;durP1;ratioP1;P1;durP2;ratioP2;P2;SDS_P1;SDS_P2;PMS_P1;PMS_P2;Temp;Humidity;BMP_temperature;BMP_pressure;BME280_temperature;BME280_humidity;BME280_pressure;Samples;Min_cycle;Max_cycle;Signal;HPM_P1;HPM_P2
2023/12/18 00:00:13;;;;;;;2.00;1.90;;;7.20;99.90;;;;;;5043561;28;20295;-69
2023/12/18 00:02:41;;;;;;;2.30;2.20;;;7.20;99.90;;;;;;5035009;28;20211;-68
2023/12/18 00:05:09;;;;;;;2.57;2.07;;;7.20;99.90;;;;;;5040396;28;20625;-68
2023/12/18 00:07:37;;;;;;;2.40;2.20;;;7.20;99.90;;;;;;5035322;28;20288;-68
2023/12/18 00:10:05;;;;;;;2.03;1.83;;;7.20;99.90;;;;;;5048151;28;20219;-69
2023/12/18 00:12:32;;;;;;;2.20;2.10;;;7.20;99.90;;;;;;5048773;28;20315;-69
2023/12/18 00:14:58;;;;;;;2.20;2.10;;;7.20;99.90;;;;;;5049268;28;20686;-70
2023/12/18 00:17:25;;;;;;;2.20;2.10;;;7.20;99.90;;;;;;5044657;28;20734;-69
2023/12/18 00:19:52;;;;;;;2.23;2.13;;;7.10;99.90;;;;;;5048926;28;20299;-69
2023/12/18 00:22:19;;;;;;;2.27;2.17;;;7.10;99.90;;;;;;5049098;28;20287;-69
2023/12/18 00:24:47;;;;;;;2.70;2.00;;;7.10;99.90;;;;;;5049583;28;20712;-69
2023/12/18 00:27:14;;;;;;;2.73;2.20;;;7.00;99.90;;;;;;5049458;28;20254;-69
2023/12/18 00:29:41;;;;;;;2.13;1.93;;;7.00;99.90;;;;;;5049850;28;20208;-69
2023/12/18 00:32:08;;;;;;;3.70;2.13;;;7.00;99.90;;;;;;5049002;28;20243;-69
2023/12/18 00:34:35;;;;;;;2.67;2.47;;;6.90;99.90;;;;;;5035428;28;20880;-69
2023/12/18 00:37:02;;;;;;;2.30;2.20;;;6.90;99.90;;;;;;5029496;28;20299;-69
2023/12/18 00:39:29;;;;;;;2.67;2.30;;;6.90;99.90;;;;;;5032547;28;20283;-69
2023/12/18 00:41:57;;;;;;;2.60;2.40;;;6.90;99.90;;;;;;5040442;28;20667;-69
2023/12/18 00:44:24;;;;;;;2.67;2.47;;;6.90;99.90;;;;;;5048958;28;20787;-69
2023/12/18 00:46:50;;;;;;;2.40;2.30;;;6.90;99.90;;;;;;5048897;28;20793;-69
2023/12/18 00:49:17;;;;;;;2.50;2.40;;;6.90;99.90;;;;;;5036644;28;20292;-69
2023/12/18 00:51:44;;;;;;;3.63;2.43;;;6.90;99.90;;;;;;5029594;28;20244;-69
2023/12/18 00:54:11;;;;;;;2.33;2.13;;;6.90;99.90;;;;;;5038583;28;20259;-69
2023/12/18 00:56:38;;;;;;;2.60;2.30;;;6.90;99.90;;;;;;5048985;28;20220;-69
2023/12/18 00:59:06;;;;;;;2.50;2.40;;;6.90;99.90;;;;;;5049018;28;20294;-69
2023/12/18 01:01:33;;;;;;;2.77;2.40;;;6.90;99.90;;;;;;5048721;28;20786;-70
2023/12/18 01:04:00;;;;;;;2.37;2.27;;;6.90;99.90;;;;;;5048648;28;20219;-69
2023/12/18 01:06:27;;;;;;;2.60;2.40;;;6.90;99.90;;;;;;5048809;28;20295;-69
2023/12/18 01:08:53;;;;;;;2.57;2.47;;;6.80;99.90;;;;;;5048241;28;20260;-69
2023/12/18 01:11:20;;;;;;;2.07;1.97;;;6.80;99.90;;;;;;5037939;28;20579;-70
2023/12/18 01:13:47;;;;;;;2.63;2.43;;;6.80;99.90;;;;;;5048005;28;20240;-70
2023/12/18 01:16:15;;;;;;;2.50;2.30;;;6.80;99.90;;;;;;5048543;28;20303;-70
2023/12/18 01:18:42;;;;;;;2.80;2.60;;;6.80;99.90;;;;;;5047886;28;20261;-70
2023/12/18 01:21:09;;;;;;;2.40;2.30;;;6.80;99.90;;;;;;5031916;28;20295;-70
2023/12/18 01:23:36;;;;;;;2.60;2.40;;;6.70;99.90;;;;;;5034367;28;20303;-70
2023/12/18 01:26:03;;;;;;;2.70;2.50;;;6.70;99.90;;;;;;5047926;28;20302;-70
2023/12/18 01:28:30;;;;;;;2.60;2.50;;;6.70;99.90;;;;;;5046989;28;20243;-70
2023/12/18 01:30:57;;;;;;;2.83;2.57;;;6.70;99.90;;;;;;5040062;28;20211;-70
2023/12/18 01:33:25;;;;;;;2.57;2.33;;;6.70;99.90;;;;;;5047504;28;20255;-69
2023/12/18 01:35:52;;;;;;;3.53;2.60;;;6.70;99.90;;;;;;5047173;28;20204;-69
2023/12/18 01:38:19;;;;;;;3.50;3.20;;;6.70;99.90;;;;;;5048271;28;20239;-69
2023/12/18 01:40:45;;;;;;;4.03;2.80;;;6.70;99.90;;;;;;5048316;28;20291;-69
2023/12/18 01:43:26;;;;;;;2.73;2.53;;;6.60;99.90;;;;;;5047683;28;20218;-69
2023/12/18 01:45:58;;;;;;;3.23;2.90;;;6.60;99.90;;;;;;5047648;28;20259;-69
2023/12/18 01:48:28;;;;;;;2.40;2.30;;;6.60;99.90;;;;;;5047876;28;20623;-69
2023/12/18 01:50:56;;;;;;;2.67;2.50;;;6.60;99.90;;;;;;5040277;28;20284;-69
2023/12/18 01:53:25;;;;;;;3.00;2.70;;;6.70;99.90;;;;;;5040256;28;20323;-69
2023/12/18 01:55:52;;;;;;;3.00;2.80;;;6.60;99.90;;;;;;5047544;28;20666;-70
2023/12/18 01:58:19;;;;;;;2.70;2.50;;;6.60;99.90;;;;;;5061669;28;20299;-69
2023/12/18 02:00:47;;;;;;;2.90;2.70;;;6.60;99.90;;;;;;5053805;28;20288;-69
2023/12/18 02:03:16;;;;;;;2.70;2.50;;;6.70;99.90;;;;;;5027648;28;20267;-69
2023/12/18 02:05:45;;;;;;;4.73;3.10;;;6.70;99.90;;;;;;5027761;28;20209;-68
2023/12/18 02:08:12;;;;;;;2.90;2.70;;;6.70;99.90;;;;;;5033464;28;20232;-69
2023/12/18 02:10:40;;;;;;;3.20;2.73;;;6.70;99.90;;;;;;5042157;28;20243;-69
2023/12/18 02:13:07;;;;;;;3.00;2.80;;;6.70;99.90;;;;;;5027490;28;20311;-69
2023/12/18 02:15:34;;;;;;;3.00;2.80;;;6.80;99.90;;;;;;5028489;28;20213;-69
2023/12/18 02:18:00;;;;;;;3.23;3.03;;;6.80;99.90;;;;;;5047264;28;20872;-69
2023/12/18 02:20:27;;;;;;;3.03;2.83;;;6.80;99.90;;;;;;5047029;28;20286;-69
2023/12/18 02:22:55;;;;;;;3.67;3.00;;;6.90;99.90;;;;;;5029525;28;20240;-69
2023/12/18 02:25:22;;;;;;;3.23;3.03;;;6.90;99.90;;;;;;5027430;28;20208;-69
2023/12/18 02:27:50;;;;;;;3.30;3.10;;;6.90;99.90;;;;;;5027254;28;20299;-69
2023/12/18 02:30:17;;;;;;;3.40;3.20;;;6.90;99.90;;;;;;5027403;28;20227;-69
2023/12/18 02:32:44;;;;;;;3.30;3.10;;;6.90;99.90;;;;;;5027559;28;20422;-69
2023/12/18 02:35:11;;;;;;;3.93;3.37;;;7.00;99.90;;;;;;5026970;28;20240;-69
2023/12/18 02:37:38;;;;;;;3.13;2.93;;;7.00;99.90;;;;;;5027431;28;20244;-69
2023/12/18 02:40:07;;;;;;;3.50;3.20;;;7.10;99.90;;;;;;5028532;28;20236;-69
2023/12/18 02:42:35;;;;;;;4.03;3.73;;;7.10;99.90;;;;;;5032702;28;20201;-69
2023/12/18 02:45:02;;;;;;;4.27;3.87;;;7.10;99.90;;;;;;5026827;28;20312;-69
2023/12/18 02:47:29;;;;;;;3.53;3.23;;;7.10;99.90;;;;;;5027158;28;20209;-69
2023/12/18 02:49:56;;;;;;;4.83;4.33;;;7.20;99.90;;;;;;5041700;28;20242;-69
2023/12/18 02:52:23;;;;;;;5.10;4.60;;;7.20;99.90;;;;;;5046636;28;20235;-69
2023/12/18 02:54:50;;;;;;;5.43;4.93;;;7.20;99.90;;;;;;5046712;28;20236;-69
2023/12/18 02:57:18;;;;;;;4.90;4.50;;;7.30;99.90;;;;;;5046646;28;20695;-69
2023/12/18 02:59:45;;;;;;;5.10;4.70;;;7.30;99.90;;;;;;5046900;28;20207;-70
2023/12/18 03:02:12;;;;;;;5.43;4.90;;;7.30;99.90;;;;;;5046683;28;20208;-70
2023/12/18 03:04:40;;;;;;;7.10;5.87;;;7.30;99.90;;;;;;5046260;28;20294;-70
2023/12/18 03:07:08;;;;;;;8.50;5.80;;;7.40;99.90;;;;;;5037180;28;20200;-70
2023/12/18 03:09:35;;;;;;;6.57;4.93;;;7.40;99.90;;;;;;5026667;28;20236;-70
2023/12/18 03:12:01;;;;;;;7.47;6.23;;;7.40;99.90;;;;;;5041208;28;20292;-70
2023/12/18 03:14:30;;;;;;;7.07;5.80;;;7.40;99.90;;;;;;5026456;28;20327;-69
2023/12/18 03:16:57;;;;;;;7.63;6.40;;;7.40;99.90;;;;;;5026268;28;20236;-68
2023/12/18 03:19:23;;;;;;;7.50;6.10;;;7.50;99.90;;;;;;5026640;28;20316;-69
2023/12/18 03:21:50;;;;;;;6.60;6.00;;;7.40;99.90;;;;;;5026709;28;20327;-69
2023/12/18 03:24:17;;;;;;;6.93;6.13;;;7.40;99.90;;;;;;5026591;28;20219;-69
2023/12/18 03:26:44;;;;;;;6.70;6.10;;;7.50;99.90;;;;;;5026423;28;20732;-69
2023/12/18 03:29:12;;;;;;;8.77;6.80;;;7.40;99.90;;;;;;5035972;28;20749;-69
2023/12/18 03:31:43;;;;;;;7.67;6.70;;;7.50;99.90;;;;;;5045914;28;20666;-68
2023/12/18 03:34:10;;;;;;;7.07;6.37;;;7.40;99.90;;;;;;5045262;28;20693;-70
2023/12/18 03:36:37;;;;;;;6.90;6.20;;;7.40;99.90;;;;;;5037449;28;20207;-70
2023/12/18 03:39:04;;;;;;;7.40;6.60;;;7.40;99.90;;;;;;5044169;28;20204;-69
2023/12/18 03:41:31;;;;;;;7.30;6.70;;;7.40;99.90;;;;;;5037496;28;20322;-69
2023/12/18 03:43:58;;;;;;;7.20;6.40;;;7.40;99.90;;;;;;5045455;28;20307;-69
2023/12/18 03:46:25;;;;;;;7.03;6.33;;;7.40;99.90;;;;;;5029248;28;20236;-70
2023/12/18 03:48:53;;;;;;;7.87;7.07;;;7.40;99.90;;;;;;5025658;28;20667;-70
2023/12/18 03:51:20;;;;;;;7.20;6.50;;;7.40;99.90;;;;;;5034570;28;20308;-70
2023/12/18 03:53:47;;;;;;;7.37;6.53;;;7.40;99.90;;;;;;5026371;28;20324;-69
2023/12/18 03:56:14;;;;;;;7.03;6.43;;;7.40;99.90;;;;;;5026247;28;20213;-68
2023/12/18 03:58:41;;;;;;;8.57;6.90;;;7.40;99.90;;;;;;5029231;28;20328;-68
2023/12/18 04:01:08;;;;;;;7.57;6.30;;;7.40;99.90;;;;;;5035464;28;20235;-69
2023/12/18 04:03:34;;;;;;;7.00;6.30;;;7.30;99.90;;;;;;5049369;28;20690;-68
2023/12/18 04:06:03;;;;;;;7.57;6.87;;;7.30;99.90;;;;;;5048185;28;20249;-68
2023/12/18 04:08:30;;;;;;;8.07;7.37;;;7.30;99.90;;;;;;5046254;28;20240;-68
2023/12/18 04:10:56;;;;;;;9.17;7.00;;;7.30;99.90;;;;;;5049318;28;20247;-68
2023/12/18 04:13:23;;;;;;;8.53;7.40;;;7.30;99.90;;;;;;5048983;28;20293;-68
2023/12/18 04:15:51;;;;;;;9.40;6.97;;;7.30;99.90;;;;;;5049921;28;20243;-68
2023/12/18 04:18:18;;;;;;;8.70;7.40;;;7.30;99.90;;;;;;5049804;28;20215;-68
2023/12/18 04:20:45;;;;;;;7.60;6.77;;;7.30;99.90;;;;;;5049608;28;20577;-68
2023/12/18 04:23:13;;;;;;;8.70;7.60;;;7.30;99.90;;;;;;5049506;28;20287;-68
2023/12/18 04:25:40;;;;;;;8.40;7.50;;;7.30;99.90;;;;;;5049610;28;20214;-69
2023/12/18 04:28:07;;;;;;;10.33;7.30;;;7.30;99.90;;;;;;5049510;28;20674;-69
2023/12/18 04:30:34;;;;;;;8.87;7.40;;;7.30;99.90;;;;;;5049940;28;20208;-69
2023/12/18 04:33:01;;;;;;;8.07;7.27;;;7.30;99.90;;;;;;5049436;28;20220;-69
2023/12/18 04:35:27;;;;;;;8.93;7.40;;;7.30;99.90;;;;;;5048788;28;20331;-69
2023/12/18 04:37:54;;;;;;;11.33;8.13;;;7.30;99.90;;;;;;5044187;28;20201;-69
2023/12/18 04:40:23;;;;;;;12.00;7.50;;;7.30;99.90;;;;;;5045520;28;20299;-69
2023/12/18 04:42:53;;;;;;;10.00;8.13;;;7.20;99.90;;;;;;5044892;28;20220;-69
2023/12/18 04:45:20;;;;;;;8.93;7.50;;;7.20;99.90;;;;;;5049273;28;20315;-69
2023/12/18 04:47:47;;;;;;;10.57;7.43;;;7.20;99.90;;;;;;5029323;28;20299;-69
2023/12/18 04:50:14;;;;;;;10.20;7.63;;;7.20;99.90;;;;;;5028682;28;20244;-68
2023/12/18 04:52:42;;;;;;;10.97;8.53;;;7.20;99.90;;;;;;5030373;28;20730;-68
2023/12/18 04:55:10;;;;;;;8.60;7.67;;;7.20;99.90;;;;;;5039178;28;20231;-68
2023/12/18 04:57:38;;;;;;;8.87;7.97;;;7.20;99.90;;;;;;5049001;28;20694;-68
2023/12/18 05:00:07;;;;;;;8.90;8.00;;;7.20;99.90;;;;;;5048858;28;20671;-68
2023/12/18 05:02:33;;;;;;;9.83;8.20;;;7.20;99.90;;;;;;5048963;28;20204;-68
2023/12/18 05:05:00;;;;;;;12.40;8.27;;;7.20;99.90;;;;;;5048760;28;20272;-68
2023/12/18 05:07:27;;;;;;;9.07;8.20;;;7.20;99.90;;;;;;5048548;28;20200;-69
2023/12/18 05:09:54;;;;;;;10.53;8.50;;;7.20;99.90;;;;;;5048702;28;20291;-68
2023/12/18 05:12:21;;;;;;;12.20;8.33;;;7.20;99.90;;;;;;5028911;28;20215;-68
2023/12/18 05:14:51;;;;;;;11.83;8.27;;;7.20;99.90;;;;;;5029166;28;20315;-68
2023/12/18 05:17:17;;;;;;;8.90;8.00;;;7.20;99.90;;;;;;5029147;28;20208;-68
2023/12/18 05:19:44;;;;;;;8.93;7.93;;;7.20;99.90;;;;;;5028959;28;20291;-68
2023/12/18 05:22:11;;;;;;;11.27;8.07;;;7.20;99.90;;;;;;5043223;28;20204;-68
2023/12/18 05:24:38;;;;;;;8.83;7.93;;;7.20;99.90;;;;;;5048712;28;20295;-68
2023/12/18 05:27:05;;;;;;;9.33;8.40;;;7.20;99.90;;;;;;5048586;28;20299;-68
2023/12/18 05:29:32;;;;;;;10.67;8.13;;;7.20;99.90;;;;;;5048689;28;20291;-68
2023/12/18 05:32:00;;;;;;;10.43;8.67;;;7.20;99.90;;;;;;5048304;28;20295;-69
2023/12/18 05:34:27;;;;;;;12.30;8.33;;;7.20;99.90;;;;;;5047874;28;20694;-70
2023/12/18 05:36:54;;;;;;;10.07;8.53;;;7.20;99.90;;;;;;5048492;28;20291;-70
2023/12/18 05:39:20;;;;;;;10.80;8.47;;;7.20;99.90;;;;;;5048414;28;20208;-69
2023/12/18 05:41:47;;;;;;;11.60;9.23;;;7.30;99.90;;;;;;5049156;28;20214;-70
2023/12/18 05:44:13;;;;;;;11.47;8.03;;;7.20;99.90;;;;;;5038643;28;20315;-70
2023/12/18 05:46:40;;;;;;;10.67;8.57;;;7.20;99.90;;;;;;5039333;28;20720;-70
2023/12/18 05:49:09;;;;;;;10.97;8.77;;;7.20;99.90;;;;;;5047462;28;20684;-69
2023/12/18 05:51:36;;;;;;;11.17;8.60;;;7.20;99.90;;;;;;5048362;28;20246;-70
2023/12/18 05:54:02;;;;;;;9.63;8.40;;;7.20;99.90;;;;;;5047835;28;20204;-70
2023/12/18 05:56:29;;;;;;;9.83;8.63;;;7.20;99.90;;;;;;5047890;28;20311;-70
2023/12/18 05:58:57;;;;;;;10.97;8.67;;;7.20;99.90;;;;;;5048430;28;20299;-70
2023/12/18 06:01:24;;;;;;;10.70;7.87;;;7.20;99.90;;;;;;5047998;28;20208;-70
2023/12/18 06:03:51;;;;;;;9.43;8.50;;;7.20;99.90;;;;;;5047472;28;20936;-70
2023/12/18 06:06:19;;;;;;;13.63;7.87;;;7.20;99.90;;;;;;5030643;28;20243;-70
2023/12/18 06:08:46;;;;;;;10.83;8.30;;;7.20;99.90;;;;;;5027693;28;20646;-70
2023/12/18 06:11:15;;;;;;;8.33;7.53;;;7.20;99.90;;;;;;5038351;28;20216;-70
2023/12/18 06:13:42;;;;;;;9.67;8.40;;;7.20;99.90;;;;;;5047732;28;20211;-70
2023/12/18 06:16:09;;;;;;;8.63;7.77;;;7.20;99.90;;;;;;5047243;28;20725;-70
2023/12/18 06:18:36;;;;;;;11.17;7.93;;;7.20;99.90;;;;;;5047154;28;20302;-70
2023/12/18 06:21:04;;;;;;;10.27;8.20;;;7.20;99.90;;;;;;5046641;28;20719;-70
2023/12/18 06:23:32;;;;;;;11.03;8.30;;;7.20;99.90;;;;;;5047821;28;20210;-70
2023/12/18 06:25:59;;;;;;;10.20;8.60;;;7.20;99.90;;;;;;5046954;28;20243;-70
2023/12/18 06:28:26;;;;;;;10.00;8.60;;;7.20;99.90;;;;;;5046993;28;20239;-69
2023/12/18 06:30:54;;;;;;;10.47;8.73;;;7.10;99.90;;;;;;5047089;28;20263;-69
2023/12/18 06:33:21;;;;;;;10.70;8.83;;;7.20;99.90;;;;;;5046825;28;20648;-69
2023/12/18 06:35:48;;;;;;;11.80;9.07;;;7.20;99.90;;;;;;5046921;28;20238;-69
2023/12/18 06:38:15;;;;;;;15.33;8.73;;;7.20;99.90;;;;;;5046627;28;20235;-69
2023/12/18 06:40:43;;;;;;;9.80;8.50;;;7.10;99.90;;;;;;5046806;28;20255;-69
2023/12/18 06:43:10;;;;;;;11.03;8.77;;;7.20;99.90;;;;;;5044937;28;20302;-69
2023/12/18 06:45:37;;;;;;;10.60;8.63;;;7.20;99.90;;;;;;5046740;28;20204;-69
2023/12/18 06:48:04;;;;;;;10.27;8.23;;;7.20;99.90;;;;;;5046322;28;20307;-69
2023/12/18 06:50:31;;;;;;;8.63;7.80;;;7.10;99.90;;;;;;5046452;28;20723;-70
2023/12/18 06:53:00;;;;;;;8.80;7.90;;;7.20;99.90;;;;;;5046631;28;20737;-69
2023/12/18 06:55:27;;;;;;;12.43;8.70;;;7.20;99.90;;;;;;5046906;28;20324;-69
2023/12/18 06:57:55;;;;;;;8.73;7.90;;;7.20;99.90;;;;;;5046645;28;20230;-69
2023/12/18 07:00:22;;;;;;;9.23;8.33;;;7.20;99.90;;;;;;5046879;28;20239;-69
2023/12/18 07:02:49;;;;;;;9.53;8.00;;;7.20;99.90;;;;;;5046242;28;20223;-68
2023/12/18 07:05:16;;;;;;;11.47;8.00;;;7.20;99.90;;;;;;5046585;28;20204;-68
2023/12/18 07:07:43;;;;;;;9.27;8.13;;;7.20;99.90;;;;;;5046341;28;20661;-68
2023/12/18 07:10:10;;;;;;;10.23;8.17;;;7.20;99.90;;;;;;5046100;28;20571;-70
2023/12/18 07:12:37;;;;;;;10.23;7.87;;;7.20;99.90;;;;;;5046681;28;20227;-69
2023/12/18 07:15:07;;;;;;;11.50;8.53;;;7.20;99.90;;;;;;5046356;28;20318;-69
2023/12/18 07:17:34;;;;;;;9.60;8.60;;;7.20;99.90;;;;;;5046438;28;20247;-69
2023/12/18 07:20:01;;;;;;;11.30;8.77;;;7.20;99.90;;;;;;5045822;28;20218;-70
2023/12/18 07:22:28;;;;;;;9.30;8.20;;;7.20;99.90;;;;;;5045901;28;20290;-70
2023/12/18 07:24:54;;;;;;;9.33;8.40;;;7.20;99.90;;;;;;5039132;28;20292;-70
2023/12/18 07:27:21;;;;;;;12.00;8.90;;;7.20;99.90;;;;;;5032162;28;20329;-70
2023/12/18 07:29:48;;;;;;;11.17;7.83;;;7.20;99.90;;;;;;5046653;28;20657;-70
2023/12/18 07:32:16;;;;;;;9.07;8.17;;;7.20;99.90;;;;;;5047155;28;20378;-70
2023/12/18 07:34:44;;;;;;;11.87;7.73;;;7.20;99.90;;;;;;5049577;28;20239;-70
2023/12/18 07:37:11;;;;;;;9.33;8.07;;;7.20;99.90;;;;;;5050608;28;20654;-69
2023/12/18 07:39:38;;;;;;;8.77;7.43;;;7.30;99.90;;;;;;5050525;28;20299;-69
2023/12/18 07:42:05;;;;;;;11.43;7.90;;;7.20;99.90;;;;;;5039150;28;20211;-69
2023/12/18 07:44:32;;;;;;;8.40;7.40;;;7.20;99.90;;;;;;5030524;28;20231;-69
2023/12/18 07:46:59;;;;;;;9.47;7.40;;;7.30;99.90;;;;;;5047014;28;20600;-69
2023/12/18 07:49:27;;;;;;;10.23;7.00;;;7.30;99.90;;;;;;5050065;28;20208;-69
2023/12/18 07:51:54;;;;;;;8.07;7.03;;;7.30;99.90;;;;;;5050110;28;20326;-69
2023/12/18 07:54:21;;;;;;;7.80;7.03;;;7.30;99.90;;;;;;5049875;28;20323;-69
2023/12/18 07:56:48;;;;;;;7.77;6.97;;;7.30;99.90;;;;;;5050256;28;20347;-69
2023/12/18 07:59:17;;;;;;;9.90;7.10;;;7.30;99.90;;;;;;5050072;28;20204;-69
2023/12/18 08:01:44;;;;;;;8.37;7.47;;;7.30;99.90;;;;;;5050075;28;20303;-68
2023/12/18 08:04:11;;;;;;;9.17;7.27;;;7.30;99.90;;;;;;5047964;28;20204;-69
2023/12/18 08:06:39;;;;;;;8.37;6.70;;;7.30;99.90;;;;;;5039456;28;20208;-69
2023/12/18 08:09:07;;;;;;;7.67;6.97;;;7.30;99.90;;;;;;5039951;28;20260;-69
2023/12/18 08:11:34;;;;;;;7.90;7.10;;;7.30;99.90;;;;;;5040621;28;20205;-69
2023/12/18 08:14:01;;;;;;;10.27;7.20;;;7.30;99.90;;;;;;5043767;28;20215;-69
2023/12/18 08:16:28;;;;;;;7.40;6.67;;;7.30;99.90;;;;;;5038749;28;20315;-69
2023/12/18 08:18:55;;;;;;;8.10;6.90;;;7.30;99.90;;;;;;5037915;28;20291;-70
2023/12/18 08:21:22;;;;;;;9.13;7.13;;;7.40;99.90;;;;;;5038514;28;20197;-69
2023/12/18 08:23:50;;;;;;;8.17;7.20;;;7.40;99.90;;;;;;5041690;28;20228;-69
2023/12/18 08:26:17;;;;;;;7.33;6.47;;;7.40;99.90;;;;;;5043040;28;20223;-69
2023/12/18 08:28:45;;;;;;;7.37;6.67;;;7.40;99.90;;;;;;5029655;28;20204;-69
2023/12/18 08:31:12;;;;;;;8.10;7.30;;;7.30;99.90;;;;;;5038957;28;20307;-69
2023/12/18 08:33:39;;;;;;;7.23;6.53;;;7.40;99.90;;;;;;5048937;28;20283;-69
2023/12/18 08:36:07;;;;;;;6.80;6.30;;;7.30;99.90;;;;;;5049047;28;20330;-69
2023/12/18 08:38:34;;;;;;;7.70;6.37;;;7.40;99.90;;;;;;5049302;28;20691;-69
2023/12/18 08:41:03;;;;;;;7.03;6.30;;;7.40;99.90;;;;;;5048867;28;20295;-69
2023/12/18 08:43:30;;;;;;;6.80;6.20;;;7.40;99.90;;;;;;5048323;28;20339;-69
2023/12/18 08:45:56;;;;;;;8.50;6.87;;;7.40;99.90;;;;;;5044360;28;20228;-69
2023/12/18 08:48:23;;;;;;;6.40;5.90;;;7.40;99.90;;;;;;5029056;28;20248;-68
2023/12/18 08:50:50;;;;;;;6.33;5.70;;;7.40;99.90;;;;;;5042333;28;20294;-69
2023/12/18 08:53:17;;;;;;;8.90;5.77;;;7.40;99.90;;;;;;5047094;28;20723;-69
2023/12/18 08:55:44;;;;;;;8.13;6.60;;;7.40;99.90;;;;;;5048470;28;20706;-69
2023/12/18 08:58:12;;;;;;;6.80;6.10;;;7.40;99.90;;;;;;5048693;28;20583;-69
2023/12/18 09:00:39;;;;;;;6.23;5.63;;;7.40;99.90;;;;;;5046742;28;20386;-69
2023/12/18 09:03:06;;;;;;;7.33;5.67;;;7.40;99.90;;;;;;5028603;28;20204;-69
2023/12/18 09:05:33;;;;;;;7.13;5.63;;;7.40;99.90;;;;;;5028568;28;20319;-70
2023/12/18 09:08:00;;;;;;;7.10;5.80;;;7.40;99.90;;;;;;5028421;28;20311;-69
2023/12/18 09:10:29;;;;;;;7.07;6.10;;;7.40;99.90;;;;;;5040475;28;20220;-69
2023/12/18 09:12:55;;;;;;;8.27;6.20;;;7.40;99.90;;;;;;5048744;28;20204;-70
2023/12/18 09:15:24;;;;;;;6.80;6.17;;;7.40;99.90;;;;;;5048114;28;20319;-70
2023/12/18 09:17:51;;;;;;;6.83;6.07;;;7.40;99.90;;;;;;5047916;28;20295;-70
2023/12/18 09:20:18;;;;;;;7.93;6.77;;;7.40;99.90;;;;;;5035282;28;20307;-70
2023/12/18 09:22:46;;;;;;;9.37;6.90;;;7.40;99.90;;;;;;5048380;28;20218;-70
2023/12/18 09:25:13;;;;;;;7.13;6.47;;;7.40;99.90;;;;;;5048279;28;20258;-70
2023/12/18 09:27:40;;;;;;;6.77;6.13;;;7.40;99.90;;;;;;5048073;28;20302;-71
2023/12/18 09:30:08;;;;;;;8.10;6.30;;;7.40;99.90;;;;;;5047987;28;20232;-69
2023/12/18 09:32:36;;;;;;;7.70;6.93;;;7.40;99.90;;;;;;5048124;28;20314;-69
2023/12/18 09:35:03;;;;;;;6.77;5.80;;;7.40;99.90;;;;;;5047673;28;20214;-69
2023/12/18 09:37:30;;;;;;;6.97;6.33;;;7.40;99.90;;;;;;5048130;28;20212;-69
2023/12/18 09:39:57;;;;;;;8.00;6.63;;;7.40;99.90;;;;;;5036105;28;20470;-69
2023/12/18 09:42:24;;;;;;;7.20;6.10;;;7.40;99.90;;;;;;5047638;28;20228;-69
2023/12/18 09:44:51;;;;;;;9.90;6.67;;;7.40;99.90;;;;;;5047847;28;20228;-69
2023/12/18 09:47:18;;;;;;;8.13;6.33;;;7.40;99.90;;;;;;5048120;28;20251;-69
2023/12/18 09:49:46;;;;;;;9.43;6.77;;;7.40;99.90;;;;;;5047688;28;20196;-69
2023/12/18 09:52:16;;;;;;;7.90;7.00;;;7.40;99.90;;;;;;5046171;28;20235;-69
2023/12/18 09:54:44;;;;;;;7.33;6.63;;;7.40;99.90;;;;;;5046677;28;20298;-69
2023/12/18 09:57:15;;;;;;;7.60;6.43;;;7.40;99.90;;;;;;5047358;28;20258;-69
2023/12/18 09:59:42;;;;;;;7.40;6.60;;;7.30;99.90;;;;;;5047756;28;20269;-69
2023/12/18 10:02:12;;;;;;;8.63;7.07;;;7.30;99.90;;;;;;5047150;28;20251;-69
2023/12/18 10:04:41;;;;;;;8.17;6.80;;;7.40;99.90;;;;;;5045521;28;20204;-69
2023/12/18 10:07:10;;;;;;;7.87;7.00;;;7.40;99.90;;;;;;5045480;28;20286;-69
2023/12/18 10:09:37;;;;;;;9.30;7.20;;;7.30;99.90;;;;;;5038808;28;20231;-69
2023/12/18 10:12:05;;;;;;;8.43;7.20;;;7.40;99.90;;;;;;5030255;28;20209;-68
2023/12/18 10:14:31;;;;;;;8.13;7.30;;;7.40;99.90;;;;;;5027228;28;20212;-69
2023/12/18 10:16:59;;;;;;;9.57;6.73;;;7.40;99.90;;;;;;5046274;28;20235;-68
2023/12/18 10:19:27;;;;;;;9.90;7.37;;;7.40;99.90;;;;;;5047067;28;20670;-69
2023/12/18 10:21:54;;;;;;;8.17;6.90;;;7.40;99.90;;;;;;5047077;28;20650;-68
2023/12/18 10:24:23;;;;;;;10.07;7.17;;;7.40;99.90;;;;;;5042439;28;20224;-69
2023/12/18 10:26:49;;;;;;;7.63;6.80;;;7.40;99.90;;;;;;5027360;28;20248;-68
2023/12/18 10:29:16;;;;;;;9.07;6.57;;;7.40;99.90;;;;;;5027206;28;20209;-69
2023/12/18 10:31:44;;;;;;;8.47;7.17;;;7.40;99.90;;;;;;5046660;28;20239;-69
2023/12/18 10:34:11;;;;;;;8.23;7.40;;;7.40;99.90;;;;;;5046888;28;20291;-68
2023/12/18 10:36:41;;;;;;;8.53;7.40;;;7.40;99.90;;;;;;5046496;28;20699;-68
2023/12/18 10:39:12;;;;;;;7.37;6.77;;;7.40;99.90;;;;;;5045412;28;20208;-69
2023/12/18 10:41:45;;;;;;;9.13;8.13;;;7.40;99.90;;;;;;5046577;28;20929;-69
2023/12/18 10:44:14;;;;;;;8.70;7.33;;;7.50;99.90;;;;;;5027205;28;20323;-69
2023/12/18 10:46:42;;;;;;;10.30;6.90;;;7.50;99.90;;;;;;5037158;28;20212;-69
2023/12/18 10:49:10;;;;;;;8.40;7.27;;;7.50;99.90;;;;;;5046544;28;20953;-69
2023/12/18 10:51:39;;;;;;;10.73;7.90;;;7.50;99.90;;;;;;5047043;28;20295;-69
2023/12/18 10:54:07;;;;;;;7.57;6.67;;;7.50;99.90;;;;;;5047196;28;20211;-69
2023/12/18 10:56:34;;;;;;;8.80;7.37;;;7.50;99.90;;;;;;5038419;28;20216;-69
2023/12/18 10:59:04;;;;;;;7.77;6.97;;;7.60;99.90;;;;;;5047102;28;20294;-69
2023/12/18 11:01:32;;;;;;;7.23;6.50;;;7.50;99.90;;;;;;5043817;28;20293;-69
2023/12/18 11:04:00;;;;;;;8.07;7.10;;;7.50;99.90;;;;;;5024475;28;20236;-69
2023/12/18 11:06:28;;;;;;;8.63;7.80;;;7.50;99.90;;;;;;5029251;28;20240;-69
2023/12/18 11:08:55;;;;;;;10.83;6.80;;;7.50;99.90;;;;;;5036445;28;20319;-69
2023/12/18 11:11:24;;;;;;;9.13;7.93;;;7.50;99.90;;;;;;5036374;28;20212;-69
2023/12/18 11:14:07;;;;;;;8.17;7.30;;;7.40;99.90;;;;;;5044420;28;20235;-69
2023/12/18 11:16:49;;;;;;;7.97;7.00;;;7.50;99.90;;;;;;5044942;28;20251;-69
2023/12/18 11:19:25;;;;;;;8.67;7.17;;;7.40;99.90;;;;;;5043802;28;20875;-69
2023/12/18 11:21:53;;;;;;;9.10;7.67;;;7.40;99.90;;;;;;5025027;28;20201;-69
2023/12/18 11:24:20;;;;;;;10.53;7.67;;;7.40;99.90;;;;;;5024946;28;20291;-69
2023/12/18 11:26:47;;;;;;;10.07;8.60;;;7.40;99.90;;;;;;5025273;28;20304;-69
2023/12/18 11:29:49;;;;;;;9.13;7.70;;;7.40;99.90;;;;;;5038970;28;20204;-69
2023/12/18 11:32:44;;;;;;;8.63;7.73;;;7.40;99.90;;;;;;5044545;28;20211;-69
2023/12/18 11:35:12;;;;;;;9.63;8.70;;;7.40;99.90;;;;;;5041954;28;20204;-69
2023/12/18 11:37:42;;;;;;;10.40;8.13;;;7.40;99.90;;;;;;5031485;28;20787;-69
2023/12/18 11:40:35;;;;;;;8.90;8.00;;;7.40;99.90;;;;;;5040107;28;20220;-69
2023/12/18 11:43:03;;;;;;;11.87;8.77;;;7.40;99.90;;;;;;5040761;28;20224;-69
2023/12/18 11:45:32;;;;;;;9.13;8.20;;;7.40;99.90;;;;;;5044849;28;20571;-69
2023/12/18 11:48:01;;;;;;;9.50;8.53;;;7.40;99.90;;;;;;5042775;28;20756;-69
2023/12/18 11:50:31;;;;;;;14.00;9.00;;;7.50;99.90;;;;;;5043741;28;20240;-69
2023/12/18 11:52:59;;;;;;;12.93;8.47;;;7.50;99.90;;;;;;5044264;28;20231;-69
2023/12/18 11:55:50;;;;;;;11.87;8.40;;;7.50;99.90;;;;;;5042159;28;20319;-69
2023/12/18 11:58:19;;;;;;;12.67;8.57;;;7.50;99.90;;;;;;5035048;28;20192;-69
2023/12/18 12:00:48;;;;;;;10.20;7.70;;;7.60;99.90;;;;;;5040531;28;20693;-69
2023/12/18 12:03:15;;;;;;;8.47;7.67;;;7.60;99.90;;;;;;5029437;28;20293;-69
2023/12/18 12:05:43;;;;;;;10.17;8.63;;;7.60;99.90;;;;;;5030651;28;20310;-69
2023/12/18 12:08:10;;;;;;;9.13;8.10;;;7.70;99.90;;;;;;5031542;28;20243;-69
2023/12/18 12:10:41;;;;;;;15.63;9.87;;;7.80;99.90;;;;;;5045630;28;20216;-69
2023/12/18 12:13:16;;;;;;;10.27;9.17;;;7.80;99.90;;;;;;5045863;28;20208;-69
2023/12/18 12:15:50;;;;;;;10.90;8.23;;;7.80;99.90;;;;;;5048742;28;20282;-69
2023/12/18 12:18:19;;;;;;;10.57;8.23;;;7.80;99.90;;;;;;5055045;28;20262;-69
2023/12/18 12:20:46;;;;;;;11.53;8.67;;;7.90;99.90;;;;;;5045786;28;20307;-69
2023/12/18 12:23:12;;;;;;;9.73;8.13;;;7.90;99.90;;;;;;5049264;28;20637;-69
2023/12/18 12:25:40;;;;;;;10.77;8.50;;;7.90;99.90;;;;;;5049633;28;20267;-69
2023/12/18 12:28:07;;;;;;;10.90;8.53;;;8.00;99.90;;;;;;5042546;28;20244;-69
2023/12/18 12:30:35;;;;;;;11.50;8.17;;;7.90;99.90;;;;;;5030539;28;20284;-69
2023/12/18 12:33:03;;;;;;;10.60;8.73;;;7.90;99.90;;;;;;5048961;28;20781;-69
2023/12/18 12:35:33;;;;;;;10.17;8.00;;;7.90;99.90;;;;;;5048935;28;20218;-69
2023/12/18 12:38:02;;;;;;;8.60;7.70;;;7.90;99.90;;;;;;5049224;28;20318;-69
2023/12/18 12:40:38;;;;;;;11.70;8.07;;;7.90;99.90;;;;;;5047223;28;20591;-69
2023/12/18 12:43:05;;;;;;;9.00;7.93;;;8.00;99.90;;;;;;5046740;28;20710;-70
2023/12/18 12:45:32;;;;;;;9.60;7.83;;;7.90;99.90;;;;;;5043762;28;20196;-69
2023/12/18 12:48:00;;;;;;;10.67;8.03;;;7.90;99.90;;;;;;5048963;28;20255;-69
2023/12/18 12:50:28;;;;;;;10.30;8.23;;;7.90;99.90;;;;;;5048602;28;20303;-69
2023/12/18 12:52:58;;;;;;;8.47;7.43;;;7.90;99.90;;;;;;5049287;28;20216;-69
2023/12/18 12:55:25;;;;;;;10.43;8.10;;;7.90;99.90;;;;;;5048892;28;20199;-69
2023/12/18 12:57:52;;;;;;;9.43;8.10;;;7.90;99.90;;;;;;5031204;28;20667;-69